Time;durP1;ratioP1;P1;durP2;ratioP2;P2;SDS_P1;SDS_P2;PMS_P1;PMS_P2;Temp;Humidity;BMP_temperature;BMP_pressure;BME280_temperature;BME280_humidity;BME280_pressure;Samples;Min_cycle;Max_cycle;Signal;HPM_P1;HPM_P2
2022/09/22 00:00:40;;;;;;;;;;;22.60;54.50;;;;;;4991945;28;19948;-73
2022/09/22 00:03:06;;;;;;;;;;;22.60;54.50;;;;;;5003961;28;19918;-72
2022/09/22 00:05:31;;;;;;;;;;;22.60;54.60;;;;;;4992363;28;19922;-72
2022/09/22 00:07:56;;;;;;;;;;;22.60;54.70;;;;;;4995593;28;19913;-73
2022/09/22 00:10:22;;;;;;;;;;;22.50;54.50;;;;;;5012094;28;19983;-74
2022/09/22 00:12:48;;;;;;;;;;;22.60;54.50;;;;;;5013496;28;19921;-74
2022/09/22 00:15:13;;;;;;;;;;;22.60;54.50;;;;;;5010938;28;19909;-73
2022/09/22 00:17:39;;;;;;;;;;;22.60;54.50;;;;;;5011497;28;19910;-73
2022/09/22 00:20:04;;;;;;;;;;;22.50;54.50;;;;;;5008614;28;20354;-73
2022/09/22 00:22:30;;;;;;;;;;;22.50;54.50;;;;;;5013109;28;20377;-72
2022/09/22 00:24:55;;;;;;;;;;;22.50;54.40;;;;;;5014427;28;19917;-73
2022/09/22 00:27:23;;;;;;;;;;;22.50;54.50;;;;;;5014465;28;19914;-73
2022/09/22 00:29:49;;;;;;;;;;;22.50;54.40;;;;;;4996991;28;19949;-73
2022/09/22 00:32:15;;;;;;;;;;;22.50;54.40;;;;;;4995132;28;20293;-73
2022/09/22 00:34:40;;;;;;;;;;;22.50;54.40;;;;;;5013616;28;19914;-73
2022/09/22 00:37:06;;;;;;;;;;;22.50;54.30;;;;;;5014596;28;19917;-73
2022/09/22 00:39:31;;;;;;;;;;;22.50;54.40;;;;;;5012262;28;19979;-73
2022/09/22 00:41:56;;;;;;;;;;;22.50;54.40;;;;;;5013845;28;20008;-73
2022/09/22 00:44:25;;;;;;;;;;;22.50;54.50;;;;;;5007741;28;19964;-73
2022/09/22 00:47:01;;;;;;;;;;;22.40;54.40;;;;;;5013946;28;19913;-73
2022/09/22 00:49:36;;;;;;;;;;;22.40;54.40;;;;;;4997290;28;19929;-72
2022/09/22 00:52:01;;;;;;;;;;;22.40;54.40;;;;;;4996506;28;19960;-73
2022/09/22 00:54:27;;;;;;;;;;;22.40;54.40;;;;;;4997157;28;20334;-73
2022/09/22 00:56:54;;;;;;;;;;;22.40;54.40;;;;;;5013544;28;19910;-73
2022/09/22 00:59:20;;;;;;;;;;;22.40;54.40;;;;;;5013851;28;19980;-73
2022/09/22 01:01:46;;;;;;;;;;;22.40;54.30;;;;;;5012316;28;20403;-73
2022/09/22 01:04:11;;;;;;;;;;;22.40;54.20;;;;;;5014653;28;20008;-73
2022/09/22 01:06:38;;;;;;;;;;;22.40;54.20;;;;;;5013276;28;19909;-73
2022/09/22 01:09:03;;;;;;;;;;;22.40;54.20;;;;;;5021900;28;20000;-73
2022/09/22 01:11:28;;;;;;;;;;;22.40;54.20;;;;;;4997634;28;21625;-73
2022/09/22 01:14:10;;;;;;;;;;;22.40;54.20;;;;;;5013535;28;19920;-73
2022/09/22 01:16:38;;;;;;;;;;;22.40;54.30;;;;;;5012723;28;20340;-74
2022/09/22 01:19:25;;;;;;;;;;;22.30;54.10;;;;;;5014380;28;19981;-72
2022/09/22 01:22:10;;;;;;;;;;;22.30;54.10;;;;;;5013235;28;19920;-73
2022/09/22 01:24:44;;;;;;;;;;;22.30;54.00;;;;;;5029818;28;19913;-72
2022/09/22 01:27:13;;;;;;;;;;;22.30;54.10;;;;;;5009043;28;19913;-73
2022/09/22 01:29:47;;;;;;;;;;;22.30;54.00;;;;;;5014507;28;19909;-73
2022/09/22 01:32:51;;;;;;;;;;;22.30;54.00;;;;;;5011813;28;19940;-73
2022/09/22 01:35:27;;;;;;;;;;;22.30;54.10;;;;;;4934138;29;20276;-72
2022/09/22 01:37:53;;;;;;;;;;;22.30;54.30;;;;;;4932789;29;19954;-73
2022/09/22 01:40:38;;;;;;;;;;;22.30;54.10;;;;;;4976638;28;19948;-72
2022/09/22 01:43:19;;;;;;;;;;;22.30;54.10;;;;;;5013363;28;19921;-73
2022/09/22 01:45:45;;;;;;;;;;;22.30;54.10;;;;;;5011800;28;19920;-73
2022/09/22 01:48:24;;;;;;;;;;;22.30;54.00;;;;;;4996626;28;19914;-73
2022/09/22 01:50:51;;;;;;;;;;;22.30;54.00;;;;;;5013830;28;19913;-73
2022/09/22 01:53:17;;;;;;;;;;;22.30;54.00;;;;;;5012560;28;19955;-73
2022/09/22 01:55:52;;;;;;;;;;;22.30;54.00;;;;;;5011815;28;20317;-73
2022/09/22 01:58:19;;;;;;;;;;;22.20;53.90;;;;;;4996347;28;20428;-73
2022/09/22 02:00:48;;;;;;;;;;;22.20;54.00;;;;;;5011798;28;19914;-73
2022/09/22 02:03:15;;;;;;;;;;;22.20;54.00;;;;;;5012130;28;19964;-73
2022/09/22 02:05:42;;;;;;;;;;;22.20;54.60;;;;;;5011351;28;20357;-73
2022/09/22 02:08:15;;;;;;;;;;;22.20;54.10;;;;;;5010421;28;19948;-73
2022/09/22 02:10:41;;;;;;;;;;;22.20;54.00;;;;;;5012315;28;19909;-73
2022/09/22 02:13:07;;;;;;;;;;;22.20;54.00;;;;;;5000041;28;20009;-74
2022/09/22 02:18:17;;;;;;;;;;;22.20;53.90;;;;;;5013434;28;20015;-73
2022/09/22 02:20:43;;;;;;;;;;;22.20;53.90;;;;;;4994611;28;19914;-73
2022/09/22 02:23:08;;;;;;;;;;;22.20;53.80;;;;;;5012178;28;20254;-73
2022/09/22 02:25:34;;;;;;;;;;;22.20;53.90;;;;;;5013222;28;19920;-72
2022/09/22 02:27:59;;;;;;;;;;;22.20;53.80;;;;;;5011221;28;19917;-73
2022/09/22 02:30:25;;;;;;;;;;;22.20;53.80;;;;;;5013612;28;19916;-73
2022/09/22 02:32:51;;;;;;;;;;;22.10;53.80;;;;;;5012510;28;19913;-73
2022/09/22 02:35:16;;;;;;;;;;;22.10;53.80;;;;;;4990614;28;19971;-73
2022/09/22 02:37:49;;;;;;;;;;;22.10;53.80;;;;;;5012733;28;19948;-73
2022/09/22 02:40:24;;;;;;;;;;;22.10;53.70;;;;;;5011806;28;19925;-73
2022/09/22 02:43:00;;;;;;;;;;;22.20;53.80;;;;;;5013007;28;19960;-73
2022/09/22 02:45:26;;;;;;;;;;;22.20;53.80;;;;;;4980280;28;20358;-73
2022/09/22 02:47:59;;;;;;;;;;;22.10;53.70;;;;;;4975148;28;19910;-73
2022/09/22 02:50:25;;;;;;;;;;;22.10;53.80;;;;;;4980674;28;19967;-74
2022/09/22 02:52:51;;;;;;;;;;;22.10;53.90;;;;;;4994931;28;19921;-74
2022/09/22 02:55:16;;;;;;;;;;;22.10;53.80;;;;;;5013206;28;19909;-72
2022/09/22 02:57:42;;;;;;;;;;;22.00;53.70;;;;;;5012683;28;20423;-73
2022/09/22 03:00:08;;;;;;;;;;;22.00;53.70;;;;;;5010893;28;19909;-73
2022/09/22 03:02:33;;;;;;;;;;;22.10;53.80;;;;;;4992621;28;20011;-73
2022/09/22 03:04:59;;;;;;;;;;;22.10;53.80;;;;;;5010585;28;19925;-73
2022/09/22 03:07:24;;;;;;;;;;;22.10;53.70;;;;;;4993531;28;20333;-72
2022/09/22 03:09:50;;;;;;;;;;;22.10;53.70;;;;;;5011988;28;19913;-73
2022/09/22 03:12:17;;;;;;;;;;;22.00;53.70;;;;;;4993969;28;21217;-73
2022/09/22 03:14:43;;;;;;;;;;;22.10;53.70;;;;;;5011427;28;19913;-73
2022/09/22 03:17:08;;;;;;;;;;;22.10;53.60;;;;;;4994237;28;19913;-72
2022/09/22 03:19:34;;;;;;;;;;;22.00;53.60;;;;;;5011840;28;19924;-73
2022/09/22 03:21:59;;;;;;;;;;;22.00;53.60;;;;;;5009868;28;19918;-73
2022/09/22 03:24:25;;;;;;;;;;;22.00;53.60;;;;;;5010153;28;19933;-71
2022/09/22 03:26:50;;;;;;;;;;;22.00;53.60;;;;;;5011105;28;19948;-72
2022/09/22 03:29:16;;;;;;;;;;;22.00;53.60;;;;;;5010751;28;19924;-72
2022/09/22 03:31:41;;;;;;;;;;;22.00;53.60;;;;;;5011389;28;19916;-72
2022/09/22 03:34:06;;;;;;;;;;;22.00;53.60;;;;;;5001086;28;19968;-73
2022/09/22 03:36:32;;;;;;;;;;;22.00;53.40;;;;;;5011934;28;20010;-73
2022/09/22 03:38:58;;;;;;;;;;;22.00;53.50;;;;;;4995626;28;19921;-72
2022/09/22 03:41:24;;;;;;;;;;;22.00;53.60;;;;;;4993086;28;20553;-73
2022/09/22 03:43:50;;;;;;;;;;;22.00;53.60;;;;;;5011348;28;19921;-72
2022/09/22 03:46:15;;;;;;;;;;;22.00;53.50;;;;;;4992952;28;19918;-73
2022/09/22 03:48:40;;;;;;;;;;;22.00;53.50;;;;;;5011754;28;19916;-73
2022/09/22 03:51:06;;;;;;;;;;;22.00;53.60;;;;;;5010708;28;19992;-73
2022/09/22 03:53:31;;;;;;;;;;;22.00;53.40;;;;;;5011689;28;19917;-73
2022/09/22 03:56:04;;;;;;;;;;;22.00;53.50;;;;;;5010094;28;19913;-73
2022/09/22 03:58:29;;;;;;;;;;;22.00;53.30;;;;;;5013000;28;19918;-73
2022/09/22 04:00:55;;;;;;;;;;;22.00;53.50;;;;;;5014230;28;19928;-73
2022/09/22 04:03:23;;;;;;;;;;;22.00;53.40;;;;;;5013426;28;19917;-73
2022/09/22 04:05:49;;;;;;;;;;;22.00;53.40;;;;;;5000744;28;19922;-72
2022/09/22 04:08:14;;;;;;;;;;;21.90;53.30;;;;;;5015044;28;19978;-73
2022/09/22 04:10:40;;;;;;;;;;;21.90;53.40;;;;;;4996930;28;19948;-73
2022/09/22 04:13:05;;;;;;;;;;;21.90;53.60;;;;;;5001319;28;19929;-73
2022/09/22 04:15:31;;;;;;;;;;;21.90;53.30;;;;;;5013022;28;19918;-73
2022/09/22 04:17:56;;;;;;;;;;;21.90;53.50;;;;;;5012194;28;19917;-73
2022/09/22 04:20:22;;;;;;;;;;;21.90;53.30;;;;;;5012290;28;19968;-73
2022/09/22 04:22:47;;;;;;;;;;;21.90;53.50;;;;;;5013736;28;19948;-73
2022/09/22 04:25:12;;;;;;;;;;;21.90;53.30;;;;;;5015536;28;19909;-73
2022/09/22 04:27:38;;;;;;;;;;;21.90;53.50;;;;;;5014673;28;19914;-73
2022/09/22 04:30:04;;;;;;;;;;;21.90;53.30;;;;;;5015335;28;19917;-73
2022/09/22 04:32:30;;;;;;;;;;;21.90;54.10;;;;;;5014670;28;19925;-73
2022/09/22 04:34:56;;;;;;;;;;;21.90;53.40;;;;;;5015256;28;19975;-73
2022/09/22 04:37:21;;;;;;;;;;;21.80;53.30;;;;;;5014123;28;20373;-73
2022/09/22 04:39:47;;;;;;;;;;;21.80;53.20;;;;;;5008296;28;19913;-73
2022/09/22 04:42:13;;;;;;;;;;;21.80;53.30;;;;;;5012495;28;19972;-73
2022/09/22 04:44:38;;;;;;;;;;;21.80;53.30;;;;;;5004888;28;20009;-73
2022/09/22 04:47:03;;;;;;;;;;;21.80;53.20;;;;;;5003839;28;19914;-73
2022/09/22 04:49:29;;;;;;;;;;;21.80;53.20;;;;;;5014469;28;20369;-73
2022/09/22 04:51:55;;;;;;;;;;;21.80;53.30;;;;;;5014748;28;19968;-72
2022/09/22 04:54:20;;;;;;;;;;;21.80;53.30;;;;;;5015013;28;19952;-73
2022/09/22 04:56:46;;;;;;;;;;;21.80;53.30;;;;;;5008334;28;19921;-73
2022/09/22 04:59:11;;;;;;;;;;;21.70;53.40;;;;;;5015026;28;19916;-73
2022/09/22 05:01:37;;;;;;;;;;;21.70;53.30;;;;;;4996815;28;19992;-73
2022/09/22 05:04:02;;;;;;;;;;;21.70;53.30;;;;;;5013542;28;19937;-73
2022/09/22 05:06:28;;;;;;;;;;;21.70;53.40;;;;;;5012741;28;19913;-73
2022/09/22 05:08:54;;;;;;;;;;;21.70;53.30;;;;;;5019020;28;19958;-73
2022/09/22 05:11:22;;;;;;;;;;;21.70;53.40;;;;;;5010750;28;19918;-73
2022/09/22 05:13:48;;;;;;;;;;;21.60;53.30;;;;;;5014693;28;20389;-73
2022/09/22 05:16:13;;;;;;;;;;;21.70;53.40;;;;;;5010599;28;19992;-72
2022/09/22 05:18:38;;;;;;;;;;;21.70;53.50;;;;;;5010872;28;20273;-73
2022/09/22 05:21:05;;;;;;;;;;;21.60;53.20;;;;;;5013075;28;19913;-73
2022/09/22 05:23:31;;;;;;;;;;;21.60;53.30;;;;;;5021430;28;19924;-72
2022/09/22 05:25:56;;;;;;;;;;;21.60;53.20;;;;;;5012130;28;19917;-73
2022/09/22 05:28:23;;;;;;;;;;;21.60;53.30;;;;;;5013005;28;19936;-73
2022/09/22 05:30:49;;;;;;;;;;;21.60;53.30;;;;;;5011457;28;20006;-72
2022/09/22 05:33:14;;;;;;;;;;;21.60;53.30;;;;;;5007984;28;20056;-73
2022/09/22 05:35:40;;;;;;;;;;;21.60;53.30;;;;;;5013917;28;20270;-73
2022/09/22 05:38:05;;;;;;;;;;;21.60;53.30;;;;;;5012999;28;20262;-73
2022/09/22 05:40:31;;;;;;;;;;;21.60;53.20;;;;;;5011988;28;20028;-74
2022/09/22 05:42:56;;;;;;;;;;;21.60;53.30;;;;;;5013926;28;19914;-73
2022/09/22 05:45:22;;;;;;;;;;;21.60;53.20;;;;;;5012813;28;20000;-72
2022/09/22 05:47:47;;;;;;;;;;;21.50;53.30;;;;;;5012892;28;19928;-72
2022/09/22 05:50:14;;;;;;;;;;;21.60;53.20;;;;;;5013466;28;20361;-72
2022/09/22 05:52:39;;;;;;;;;;;21.60;53.20;;;;;;4993509;28;19917;-72
2022/09/22 05:55:05;;;;;;;;;;;21.50;53.20;;;;;;5011002;28;19936;-73
2022/09/22 05:57:31;;;;;;;;;;;21.60;53.20;;;;;;5011432;28;19913;-74
2022/09/22 05:59:56;;;;;;;;;;;21.60;53.30;;;;;;5013600;28;19955;-71
2022/09/22 06:02:22;;;;;;;;;;;21.50;53.60;;;;;;5011796;28;20369;-73
2022/09/22 06:04:47;;;;;;;;;;;21.40;53.60;;;;;;5011341;28;19917;-72
2022/09/22 06:07:13;;;;;;;;;;;21.40;53.60;;;;;;4995469;28;19914;-73
2022/09/22 06:09:38;;;;;;;;;;;21.40;54.20;;;;;;5003446;28;20286;-72
2022/09/22 06:12:05;;;;;;;;;;;21.40;53.50;;;;;;4986891;28;20052;-73
2022/09/22 06:14:31;;;;;;;;;;;21.40;53.50;;;;;;4994074;28;19932;-74
2022/09/22 06:16:57;;;;;;;;;;;21.40;53.40;;;;;;5003451;28;19917;-73
2022/09/22 06:19:23;;;;;;;;;;;21.50;53.30;;;;;;5015210;28;19921;-72
2022/09/22 06:21:49;;;;;;;;;;;21.50;53.30;;;;;;5005247;28;19914;-72
2022/09/22 06:24:14;;;;;;;;;;;21.50;53.30;;;;;;5013431;28;19917;-73
2022/09/22 06:26:40;;;;;;;;;;;21.40;53.10;;;;;;5012603;28;19914;-72
2022/09/22 06:29:07;;;;;;;;;;;21.40;53.10;;;;;;5012909;28;19917;-73
2022/09/22 06:31:32;;;;;;;;;;;21.50;53.20;;;;;;5011344;28;20325;-73
2022/09/22 06:33:57;;;;;;;;;;;21.40;53.00;;;;;;5003979;28;19969;-73
2022/09/22 06:36:26;;;;;;;;;;;21.40;53.10;;;;;;4996589;28;19953;-72
2022/09/22 06:38:53;;;;;;;;;;;21.40;53.10;;;;;;5010143;28;19909;-73
2022/09/22 06:41:18;;;;;;;;;;;21.40;53.10;;;;;;5018146;28;20428;-73
2022/09/22 06:43:46;;;;;;;;;;;21.40;53.20;;;;;;5009741;28;19957;-73
2022/09/22 06:46:12;;;;;;;;;;;21.40;53.20;;;;;;5018474;28;20528;-72
2022/09/22 06:48:38;;;;;;;;;;;21.30;53.20;;;;;;5012054;28;19948;-73
2022/09/22 06:51:03;;;;;;;;;;;21.30;53.20;;;;;;5012200;28;20353;-72
2022/09/22 06:53:29;;;;;;;;;;;21.30;53.30;;;;;;5010971;28;19922;-72
2022/09/22 06:55:54;;;;;;;;;;;21.30;53.20;;;;;;4994882;28;19920;-72
2022/09/22 06:58:21;;;;;;;;;;;21.40;53.20;;;;;;4992093;28;19922;-73
2022/09/22 07:00:46;;;;;;;;;;;21.30;53.10;;;;;;4993767;28;19943;-72
2022/09/22 07:03:21;;;;;;;;;;;21.30;53.10;;;;;;5011650;28;20012;-72
2022/09/22 07:05:50;;;;;;;;;;;21.30;53.20;;;;;;5010688;28;20355;-72
2022/09/22 07:08:16;;;;;;;;;;;21.30;53.10;;;;;;5010796;28;19913;-73
2022/09/22 07:10:41;;;;;;;;;;;21.40;53.20;;;;;;4994934;28;19910;-73
2022/09/22 07:13:09;;;;;;;;;;;21.30;53.00;;;;;;4995130;28;19988;-73
2022/09/22 07:15:35;;;;;;;;;;;21.30;53.10;;;;;;4990996;28;19921;-73
2022/09/22 07:18:00;;;;;;;;;;;21.30;53.20;;;;;;5011622;28;19940;-73
2022/09/22 07:20:27;;;;;;;;;;;21.30;53.10;;;;;;5010669;28;19957;-73
2022/09/22 07:22:59;;;;;;;;;;;21.20;53.20;;;;;;5009982;28;20093;-72
2022/09/22 07:25:25;;;;;;;;;;;21.30;53.30;;;;;;5001466;28;19917;-72
2022/09/22 07:27:51;;;;;;;;;;;21.20;53.20;;;;;;5010720;28;19933;-72
2022/09/22 07:30:20;;;;;;;;;;;21.20;53.30;;;;;;5008781;28;19921;-73
2022/09/22 07:32:46;;;;;;;;;;;21.20;53.30;;;;;;5014409;28;20300;-73
2022/09/22 07:35:11;;;;;;;;;;;21.20;53.50;;;;;;5012686;28;19968;-73
2022/09/22 07:37:40;;;;;;;;;;;21.10;53.40;;;;;;5014032;28;19941;-73
2022/09/22 07:40:06;;;;;;;;;;;21.20;53.50;;;;;;5012422;28;19952;-74
2022/09/22 07:42:32;;;;;;;;;;;21.10;53.60;;;;;;5016097;28;19976;-73
2022/09/22 07:45:13;;;;;;;;;;;21.10;53.50;;;;;;4988190;28;19937;-73
2022/09/22 07:50:22;;;;;;;;;;;21.20;53.40;;;;;;5023197;28;19920;-73
2022/09/22 07:52:51;;;;;;;;;;;21.20;53.60;;;;;;5009727;28;19917;-72
2022/09/22 07:55:17;;;;;;;;;;;21.20;53.40;;;;;;5010449;28;20390;-73
2022/09/22 07:57:42;;;;;;;;;;;21.20;53.40;;;;;;5014125;28;20008;-73
2022/09/22 08:00:08;;;;;;;;;;;21.20;53.40;;;;;;5013944;28;20400;-73
2022/09/22 08:02:33;;;;;;;;;;;21.30;53.40;;;;;;5013229;28;20370;-72
2022/09/22 08:05:00;;;;;;;;;;;21.20;53.40;;;;;;5017619;28;20296;-73
2022/09/22 08:07:26;;;;;;;;;;;21.20;53.30;;;;;;5015131;28;19920;-73
2022/09/22 08:09:51;;;;;;;;;;;21.20;53.30;;;;;;5014541;28;19917;-73
2022/09/22 08:12:16;;;;;;;;;;;21.20;53.40;;;;;;5014007;28;19921;-73
2022/09/22 08:14:42;;;;;;;;;;;21.20;53.40;;;;;;5014370;28;19917;-73
2022/09/22 08:17:11;;;;;;;;;;;21.20;53.40;;;;;;5014065;28;19925;-72
2022/09/22 08:19:36;;;;;;;;;;;21.20;53.50;;;;;;5015018;28;19921;-73
2022/09/22 08:22:02;;;;;;;;;;;21.20;53.70;;;;;;5014995;28;19914;-72
2022/09/22 08:24:27;;;;;;;;;;;21.20;53.80;;;;;;5015384;28;20008;-73
2022/09/22 08:26:54;;;;;;;;;;;21.20;54.50;;;;;;5014015;28;19913;-72
2022/09/22 08:29:20;;;;;;;;;;;21.10;54.10;;;;;;5013537;28;19918;-72
2022/09/22 08:31:46;;;;;;;;;;;21.10;54.10;;;;;;5011418;28;20377;-73
2022/09/22 08:34:13;;;;;;;;;;;21.10;54.80;;;;;;5002548;28;19913;-72
2022/09/22 08:36:39;;;;;;;;;;;21.10;54.70;;;;;;4995205;28;19913;-74
2022/09/22 08:39:04;;;;;;;;;;;21.10;55.10;;;;;;5012784;28;19925;-74
2022/09/22 08:41:30;;;;;;;;;;;21.00;55.10;;;;;;5013954;28;20022;-73
2022/09/22 08:44:00;;;;;;;;;;;21.00;55.30;;;;;;5013459;28;19952;-73
2022/09/22 08:46:28;;;;;;;;;;;21.00;55.40;;;;;;5004381;28;20390;-72
2022/09/22 08:52:03;;;;;;;;;;;21.00;55.60;;;;;;5021163;28;19944;-72
2022/09/22 08:54:30;;;;;;;;;;;21.00;55.40;;;;;;5012708;28;20015;-72
2022/09/22 08:57:22;;;;;;;;;;;20.90;55.30;;;;;;5013318;28;20369;-73
2022/09/22 08:59:50;;;;;;;;;;;20.90;55.20;;;;;;4991810;28;19960;-72
2022/09/22 09:02:35;;;;;;;;;;;20.90;55.40;;;;;;5013193;28;19924;-73
2022/09/22 09:05:03;;;;;;;;;;;20.90;55.70;;;;;;5013371;28;19922;-73
2022/09/22 09:07:36;;;;;;;;;;;20.90;55.70;;;;;;5014274;28;19941;-73
2022/09/22 09:10:04;;;;;;;;;;;21.00;55.30;;;;;;5011731;28;19996;-73
2022/09/22 09:12:39;;;;;;;;;;;21.10;55.20;;;;;;5012950;28;19925;-72
2022/09/22 09:15:17;;;;;;;;;;;21.20;54.80;;;;;;5010141;28;19914;-73
2022/09/22 09:17:43;;;;;;;;;;;21.40;54.50;;;;;;5006424;28;20020;-73
2022/09/22 09:20:15;;;;;;;;;;;21.50;54.00;;;;;;5008956;28;20045;-72
2022/09/22 09:22:42;;;;;;;;;;;21.60;53.80;;;;;;5013350;28;19913;-72
2022/09/22 09:25:21;;;;;;;;;;;21.70;53.60;;;;;;5030765;28;19932;-73
2022/09/22 09:27:48;;;;;;;;;;;21.80;54.20;;;;;;5030005;28;19924;-73
2022/09/22 09:30:16;;;;;;;;;;;21.90;53.30;;;;;;4997594;28;19910;-73
2022/09/22 09:32:56;;;;;;;;;;;22.00;53.10;;;;;;4998222;28;19924;-72
2022/09/22 09:35:35;;;;;;;;;;;22.10;53.00;;;;;;5011089;28;19953;-73
2022/09/22 09:38:00;;;;;;;;;;;22.30;52.70;;;;;;5022601;28;19915;-73
2022/09/22 09:40:26;;;;;;;;;;;22.40;52.50;;;;;;5007496;28;19917;-72
2022/09/22 09:43:05;;;;;;;;;;;22.40;52.60;;;;;;5021009;28;19909;-72
2022/09/22 09:45:54;;;;;;;;;;;22.40;52.70;;;;;;5007242;28;20008;-71
2022/09/22 09:48:32;;;;;;;;;;;22.30;52.60;;;;;;4993669;28;20336;-72
2022/09/22 09:51:02;;;;;;;;;;;22.30;52.70;;;;;;5007143;28;19924;-73
2022/09/22 09:53:32;;;;;;;;;;;22.30;52.80;;;;;;5010071;28;21021;-73
2022/09/22 09:55:57;;;;;;;;;;;22.30;52.80;;;;;;5009832;28;20374;-73
2022/09/22 10:01:09;;;;;;;;;;;22.30;52.80;;;;;;5016343;28;20340;-72
2022/09/22 10:03:35;;;;;;;;;;;22.30;53.20;;;;;;4988009;28;19960;-73
2022/09/22 10:06:05;;;;;;;;;;;22.30;53.00;;;;;;5018116;28;20747;-73
2022/09/22 10:08:40;;;;;;;;;;;22.30;53.00;;;;;;4995093;28;19913;-72
2022/09/22 10:11:06;;;;;;;;;;;22.40;53.00;;;;;;5019228;28;19931;-72
2022/09/22 10:13:35;;;;;;;;;;;22.40;52.90;;;;;;4995879;28;20027;-74
2022/09/22 10:16:20;;;;;;;;;;;22.30;52.70;;;;;;5015249;28;19921;-73
2022/09/22 10:18:45;;;;;;;;;;;22.30;52.70;;;;;;5017235;28;19952;-72
2022/09/22 10:21:21;;;;;;;;;;;22.40;52.90;;;;;;5007454;28;19913;-72
2022/09/22 10:23:50;;;;;;;;;;;22.30;52.70;;;;;;4996751;28;19925;-73
2022/09/22 10:26:22;;;;;;;;;;;22.40;52.90;;;;;;5019082;28;19921;-72
2022/09/22 10:29:05;;;;;;;;;;;22.30;52.60;;;;;;5019122;28;19917;-73
2022/09/22 10:31:31;;;;;;;;;;;22.30;52.60;;;;;;5015367;28;19913;-73
2022/09/22 10:33:57;;;;;;;;;;;22.40;52.60;;;;;;5021489;28;19921;-74
2022/09/22 10:36:24;;;;;;;;;;;22.40;53.20;;;;;;5017602;28;19922;-74
2022/09/22 10:38:50;;;;;;;;;;;22.40;52.60;;;;;;5016244;28;19968;-72
2022/09/22 10:41:16;;;;;;;;;;;22.40;52.50;;;;;;5016503;28;19944;-71
2022/09/22 10:43:48;;;;;;;;;;;22.40;52.50;;;;;;5013123;28;19999;-72
2022/09/22 10:46:33;;;;;;;;;;;22.40;52.50;;;;;;5013643;28;19909;-72
2022/09/22 10:48:58;;;;;;;;;;;22.40;52.50;;;;;;5020618;28;20314;-71
2022/09/22 10:51:37;;;;;;;;;;;22.40;52.40;;;;;;5018977;28;19921;-72
2022/09/22 10:54:21;;;;;;;;;;;22.40;52.20;;;;;;5020636;28;19921;-74
2022/09/22 10:56:57;;;;;;;;;;;22.40;52.00;;;;;;5015970;28;20407;-73
2022/09/22 10:59:26;;;;;;;;;;;22.50;51.90;;;;;;5005896;28;19913;-74
2022/09/22 11:01:55;;;;;;;;;;;22.50;51.90;;;;;;5010299;28;19914;-72
2022/09/22 11:04:41;;;;;;;;;;;22.50;51.80;;;;;;5004291;28;19928;-73
2022/09/22 11:13:21;;;;;;;;;;;22.60;51.80;;;;;;5006382;28;20358;-73
2022/09/22 11:15:54;;;;;;;;;;;22.60;51.80;;;;;;4988464;28;19920;-72
2022/09/22 11:18:32;;;;;;;;;;;22.60;51.80;;;;;;5006122;28;19917;-72
2022/09/22 11:21:05;;;;;;;;;;;22.60;51.60;;;;;;5017245;28;20361;-72
2022/09/22 11:23:53;;;;;;;;;;;22.60;51.80;;;;;;4988599;28;19917;-73
2022/09/22 11:26:30;;;;;;;;;;;22.70;51.80;;;;;;5005808;28;19917;-73
2022/09/22 11:29:07;;;;;;;;;;;22.70;51.90;;;;;;4991615;28;19913;-73
2022/09/22 11:31:36;;;;;;;;;;;22.70;51.70;;;;;;5004032;28;19925;-73
2022/09/22 11:34:01;;;;;;;;;;;22.80;51.40;;;;;;5008029;28;19917;-73
2022/09/22 11:36:32;;;;;;;;;;;22.80;51.40;;;;;;5011868;28;19913;-72
2022/09/22 11:39:00;;;;;;;;;;;22.80;51.20;;;;;;5002170;28;19955;-73
2022/09/22 11:41:29;;;;;;;;;;;22.80;51.20;;;;;;4996670;28;19913;-72
2022/09/22 11:44:13;;;;;;;;;;;22.80;51.20;;;;;;5014084;28;19925;-73
2022/09/22 11:46:58;;;;;;;;;;;22.80;51.20;;;;;;5013302;28;19921;-74
2022/09/22 11:49:45;;;;;;;;;;;22.80;51.10;;;;;;5011551;28;19914;-73
2022/09/22 11:52:23;;;;;;;;;;;22.70;50.90;;;;;;5003413;28;20002;-72
2022/09/22 11:54:51;;;;;;;;;;;22.70;51.10;;;;;;5009265;28;19913;-72
2022/09/22 11:57:18;;;;;;;;;;;22.70;51.10;;;;;;5008599;28;22705;-72
2022/09/22 11:59:54;;;;;;;;;;;22.70;50.90;;;;;;4986307;28;19928;-72
2022/09/22 12:02:34;;;;;;;;;;;22.70;50.80;;;;;;5007237;28;19921;-72
2022/09/22 12:05:03;;;;;;;;;;;22.70;50.80;;;;;;5006109;28;19936;-72
2022/09/22 12:07:31;;;;;;;;;;;22.70;50.80;;;;;;4999741;28;19921;-74
2022/09/22 12:10:00;;;;;;;;;;;22.70;50.80;;;;;;5006308;28;19941;-72
2022/09/22 12:12:26;;;;;;;;;;;22.70;50.80;;;;;;5002776;28;19964;-73
2022/09/22 12:14:55;;;;;;;;;;;22.80;50.80;;;;;;5021997;28;20462;-73
2022/09/22 12:17:21;;;;;;;;;;;22.80;50.70;;;;;;5017376;28;19917;-72
2022/09/22 12:19:54;;;;;;;;;;;22.80;50.40;;;;;;5023726;28;19996;-72
2022/09/22 12:22:35;;;;;;;;;;;22.80;50.20;;;;;;5016939;28;19976;-73
2022/09/22 12:25:00;;;;;;;;;;;22.90;50.00;;;;;;5011536;28;19979;-72
2022/09/22 12:27:26;;;;;;;;;;;22.90;49.90;;;;;;5014375;28;19917;-73
2022/09/22 12:29:53;;;;;;;;;;;23.00;50.00;;;;;;5012040;28;19960;-73
2022/09/22 12:32:19;;;;;;;;;;;23.00;50.00;;;;;;5012866;28;19917;-73
2022/09/22 12:34:45;;;;;;;;;;;23.00;49.90;;;;;;5011442;28;19975;-73
2022/09/22 12:37:34;;;;;;;;;;;23.10;49.90;;;;;;5011792;28;19914;-73
2022/09/22 12:40:18;;;;;;;;;;;23.10;49.90;;;;;;5003049;28;19917;-72
2022/09/22 12:42:45;;;;;;;;;;;23.10;49.80;;;;;;5009978;28;19935;-71
2022/09/22 12:45:27;;;;;;;;;;;23.10;49.80;;;;;;5006941;28;19924;-73
2022/09/22 12:47:52;;;;;;;;;;;23.10;49.70;;;;;;4995925;28;20008;-72
2022/09/22 12:50:24;;;;;;;;;;;23.20;50.00;;;;;;5014352;28;19956;-72
2022/09/22 12:52:50;;;;;;;;;;;23.20;49.90;;;;;;5015081;28;19914;-73
2022/09/22 12:55:26;;;;;;;;;;;23.10;50.00;;;;;;5011047;28;19922;-72
2022/09/22 12:57:52;;;;;;;;;;;23.10;50.20;;;;;;5012616;28;20008;-72
2022/09/22 13:00:34;;;;;;;;;;;23.10;50.30;;;;;;5013750;28;19914;-73
2022/09/22 13:03:00;;;;;;;;;;;23.10;50.50;;;;;;5000091;28;19925;-73
2022/09/22 13:05:25;;;;;;;;;;;23.20;50.50;;;;;;5009695;28;19917;-72
2022/09/22 13:07:54;;;;;;;;;;;23.10;50.30;;;;;;5013054;28;19983;-72
2022/09/22 13:10:20;;;;;;;;;;;23.10;50.60;;;;;;5013630;28;19963;-72
2022/09/22 13:15:50;;;;;;;;;;;23.10;50.20;;;;;;4995857;28;20186;-72
2022/09/22 13:18:35;;;;;;;;;;;23.10;50.80;;;;;;4960684;28;19937;-72
2022/09/22 13:21:21;;;;;;;;;;;23.10;50.50;;;;;;5007284;28;20408;-72
2022/09/22 13:23:49;;;;;;;;;;;23.00;50.40;;;;;;5026402;28;19909;-72
2022/09/22 13:26:15;;;;;;;;;;;23.00;50.60;;;;;;5030676;28;19913;-73
2022/09/22 13:28:41;;;;;;;;;;;22.90;50.70;;;;;;5009378;28;20389;-72
2022/09/22 13:31:13;;;;;;;;;;;22.90;50.60;;;;;;4994111;28;19949;-72
2022/09/22 13:33:39;;;;;;;;;;;22.90;50.80;;;;;;4994717;28;19920;-72
2022/09/22 13:36:10;;;;;;;;;;;22.90;50.60;;;;;;5003262;28;20747;-73
2022/09/22 13:38:37;;;;;;;;;;;22.90;50.60;;;;;;5010761;28;20012;-73
2022/09/22 13:41:03;;;;;;;;;;;22.90;50.50;;;;;;5011038;28;19914;-72
2022/09/22 13:43:30;;;;;;;;;;;22.90;50.70;;;;;;5011083;28;19921;-73
2022/09/22 13:45:56;;;;;;;;;;;22.90;50.50;;;;;;5011963;28;19917;-73
2022/09/22 13:48:21;;;;;;;;;;;23.00;50.40;;;;;;5012104;28;20384;-72
2022/09/22 13:50:53;;;;;;;;;;;23.00;50.50;;;;;;5012319;28;19924;-74
2022/09/22 13:53:19;;;;;;;;;;;23.10;50.60;;;;;;5009700;28;19968;-72
2022/09/22 13:55:49;;;;;;;;;;;23.10;50.60;;;;;;5010220;28;19917;-73
2022/09/22 13:58:18;;;;;;;;;;;23.10;50.70;;;;;;5004093;28;19924;-72
2022/09/22 14:00:46;;;;;;;;;;;23.10;50.60;;;;;;5010701;28;19914;-73
2022/09/22 14:03:16;;;;;;;;;;;23.20;50.60;;;;;;4992550;28;19913;-72
2022/09/22 14:05:42;;;;;;;;;;;23.20;50.50;;;;;;5011544;28;19988;-73
2022/09/22 14:08:09;;;;;;;;;;;23.20;50.50;;;;;;5010274;28;20023;-72
2022/09/22 14:10:35;;;;;;;;;;;23.20;50.60;;;;;;5010196;28;19965;-73
2022/09/22 14:13:00;;;;;;;;;;;23.20;50.40;;;;;;5018524;28;20376;-73
2022/09/22 14:15:39;;;;;;;;;;;23.20;50.50;;;;;;5021776;28;19914;-73
2022/09/22 14:18:15;;;;;;;;;;;23.20;50.60;;;;;;5011211;28;19920;-73
2022/09/22 14:20:42;;;;;;;;;;;23.20;50.60;;;;;;5007387;28;19924;-72
2022/09/22 14:23:12;;;;;;;;;;;23.20;50.60;;;;;;5003148;28;20262;-73
2022/09/22 14:25:37;;;;;;;;;;;23.20;50.80;;;;;;5021857;28;19917;-73
2022/09/22 14:28:03;;;;;;;;;;;23.20;50.90;;;;;;5012225;28;19920;-73
2022/09/22 14:30:30;;;;;;;;;;;23.30;50.90;;;;;;5004281;28;19925;-72
2022/09/22 14:32:59;;;;;;;;;;;23.30;50.90;;;;;;5000528;28;19921;-73
2022/09/22 14:35:25;;;;;;;;;;;23.30;50.90;;;;;;4994348;28;19917;-73
2022/09/22 14:37:50;;;;;;;;;;;23.30;50.80;;;;;;5009557;28;19921;-72
2022/09/22 14:40:20;;;;;;;;;;;23.30;50.60;;;;;;5009699;28;19919;-72
2022/09/22 14:42:56;;;;;;;;;;;23.30;51.00;;;;;;5008576;28;19914;-73
2022/09/22 14:45:22;;;;;;;;;;;23.30;50.90;;;;;;4994731;28;19914;-73